Terminal Aerodrome Forecast
Issued by NWS Amarillo, TX

Home | Current Version | Previous Version | Text Only | Print | Product List | Glossary On
Versions: 1 2 3 4 5 6 7 8 9 10 11 12 13 14 15 16 17 18 19 20 21 22 23
000
FTUS44 KAMA 290500
TAFGUY
TAF
KGUY 290520Z 2906/3006 16006KT P6SM SCT040 BKN080
     FM290900 18006KT P6SM VCTS SCT010CB BKN100
     FM291500 17013G20KT P6SM SCT035 BKN300
     FM300000 17011KT P6SM VCTS SCT035CB BKN300=

USA.gov is the U.S. government's official web portal to all federal, state and local government web resources and services.